sensor_id;sensor_type;location;lat;lon;timestamp;P1;durP1;ratioP1;P2;durP2;ratioP2
10637;SDS011;47007;49.252;8.904;2023-09-08T00:00:00;3.63;;;3.33;;
10637;SDS011;47007;49.252;8.904;2023-09-08T00:00:44;3.95;;;3.50;;
10637;SDS011;47007;49.252;8.904;2023-09-08T00:01:27;4.05;;;3.75;;
10637;SDS011;47007;49.252;8.904;2023-09-08T00:02:09;3.97;;;3.50;;
10637;SDS011;47007;49.252;8.904;2023-09-08T00:02:51;4.40;;;3.95;;
10637;SDS011;47007;49.252;8.904;2023-09-08T00:03:33;4.45;;;3.72;;
10637;SDS011;47007;49.252;8.904;2023-09-08T00:04:15;4.15;;;3.53;;
10637;SDS011;47007;49.252;8.904;2023-09-08T00:04:57;4.15;;;3.85;;
10637;SDS011;47007;49.252;8.904;2023-09-08T00:05:38;5.82;;;3.90;;
10637;SDS011;47007;49.252;8.904;2023-09-08T00:06:20;4.00;;;3.70;;
10637;SDS011;47007;49.252;8.904;2023-09-08T00:07:02;4.22;;;3.83;;
10637;SDS011;47007;49.252;8.904;2023-09-08T00:07:44;4.57;;;4.18;;
10637;SDS011;47007;49.252;8.904;2023-09-08T00:08:25;4.07;;;3.78;;
10637;SDS011;47007;49.252;8.904;2023-09-08T00:09:07;4.32;;;3.78;;
10637;SDS011;47007;49.252;8.904;2023-09-08T00:09:49;4.30;;;4.00;;
10637;SDS011;47007;49.252;8.904;2023-09-08T00:10:31;3.92;;;3.63;;
10637;SDS011;47007;49.252;8.904;2023-09-08T00:11:12;3.67;;;3.40;;
10637;SDS011;47007;49.252;8.904;2023-09-08T00:11:54;3.85;;;3.35;;
10637;SDS011;47007;49.252;8.904;2023-09-08T00:12:36;4.07;;;3.75;;
10637;SDS011;47007;49.252;8.904;2023-09-08T00:13:17;3.70;;;3.40;;
10637;SDS011;47007;49.252;8.904;2023-09-08T00:13:59;4.10;;;3.70;;
10637;SDS011;47007;49.252;8.904;2023-09-08T00:14:41;3.88;;;3.58;;
10637;SDS011;47007;49.252;8.904;2023-09-08T00:15:22;4.13;;;3.72;;
10637;SDS011;47007;49.252;8.904;2023-09-08T00:16:04;4.35;;;3.95;;
10637;SDS011;47007;49.252;8.904;2023-09-08T00:16:46;3.72;;;3.42;;
10637;SDS011;47007;49.252;8.904;2023-09-08T00:17:28;4.25;;;3.35;;
10637;SDS011;47007;49.252;8.904;2023-09-08T00:18:10;3.42;;;3.22;;
10637;SDS011;47007;49.252;8.904;2023-09-08T00:18:53;3.95;;;3.60;;
10637;SDS011;47007;49.252;8.904;2023-09-08T00:19:34;4.88;;;3.70;;
10637;SDS011;47007;49.252;8.904;2023-09-08T00:20:16;4.07;;;3.67;;
10637;SDS011;47007;49.252;8.904;2023-09-08T00:20:58;4.10;;;3.80;;
10637;SDS011;47007;49.252;8.904;2023-09-08T00:21:40;4.28;;;3.85;;
10637;SDS011;47007;49.252;8.904;2023-09-08T00:22:24;3.80;;;3.50;;
10637;SDS011;47007;49.252;8.904;2023-09-08T00:23:06;3.92;;;3.63;;
10637;SDS011;47007;49.252;8.904;2023-09-08T00:23:48;3.90;;;3.58;;
10637;SDS011;47007;49.252;8.904;2023-09-08T00:24:29;3.88;;;3.58;;
10637;SDS011;47007;49.252;8.904;2023-09-08T00:25:11;4.10;;;3.75;;
10637;SDS011;47007;49.252;8.904;2023-09-08T00:25:53;4.25;;;3.58;;
10637;SDS011;47007;49.252;8.904;2023-09-08T00:26:34;4.15;;;3.85;;
10637;SDS011;47007;49.252;8.904;2023-09-08T00:27:16;4.18;;;3.88;;
10637;SDS011;47007;49.252;8.904;2023-09-08T00:27:58;3.70;;;3.40;;
10637;SDS011;47007;49.252;8.904;2023-09-08T00:28:39;4.63;;;4.03;;
10637;SDS011;47007;49.252;8.904;2023-09-08T00:29:21;4.65;;;3.60;;
10637;SDS011;47007;49.252;8.904;2023-09-08T00:30:03;3.83;;;3.53;;
10637;SDS011;47007;49.252;8.904;2023-09-08T00:30:45;3.53;;;3.33;;
10637;SDS011;47007;49.252;8.904;2023-09-08T00:31:27;4.00;;;3.70;;
10637;SDS011;47007;49.252;8.904;2023-09-08T00:32:08;4.10;;;3.80;;
10637;SDS011;47007;49.252;8.904;2023-09-08T00:32:51;3.65;;;3.35;;
10637;SDS011;47007;49.252;8.904;2023-09-08T00:33:35;5.32;;;4.03;;
10637;SDS011;47007;49.252;8.904;2023-09-08T00:34:17;5.63;;;4.47;;
10637;SDS011;47007;49.252;8.904;2023-09-08T00:34:59;4.82;;;3.70;;
10637;SDS011;47007;49.252;8.904;2023-09-08T00:35:43;4.97;;;4.30;;
10637;SDS011;47007;49.252;8.904;2023-09-08T00:36:26;4.60;;;4.13;;
10637;SDS011;47007;49.252;8.904;2023-09-08T00:37:07;4.53;;;3.55;;
10637;SDS011;47007;49.252;8.904;2023-09-08T00:37:51;3.70;;;3.40;;
10637;SDS011;47007;49.252;8.904;2023-09-08T00:38:33;4.60;;;4.20;;
10637;SDS011;47007;49.252;8.904;2023-09-08T00:39:15;4.03;;;3.72;;
10637;SDS011;47007;49.252;8.904;2023-09-08T00:39:56;4.32;;;3.92;;
10637;SDS011;47007;49.252;8.904;2023-09-08T00:40:38;5.55;;;4.10;;
10637;SDS011;47007;49.252;8.904;2023-09-08T00:41:20;4.35;;;4.03;;
10637;SDS011;47007;49.252;8.904;2023-09-08T00:42:02;3.58;;;3.38;;
10637;SDS011;47007;49.252;8.904;2023-09-08T00:42:46;3.60;;;3.30;;
10637;SDS011;47007;49.252;8.904;2023-09-08T00:43:28;3.67;;;3.38;;
10637;SDS011;47007;49.252;8.904;2023-09-08T00:44:10;3.58;;;3.10;;
10637;SDS011;47007;49.252;8.904;2023-09-08T00:44:52;4.35;;;3.47;;
10637;SDS011;47007;49.252;8.904;2023-09-08T00:45:35;3.85;;;3.53;;
10637;SDS011;47007;49.252;8.904;2023-09-08T00:46:21;4.00;;;3.70;;
10637;SDS011;47007;49.252;8.904;2023-09-08T00:47:03;3.65;;;3.33;;
10637;SDS011;47007;49.252;8.904;2023-09-08T00:47:46;3.72;;;3.42;;
10637;SDS011;47007;49.252;8.904;2023-09-08T00:48:28;4.03;;;3.58;;
10637;SDS011;47007;49.252;8.904;2023-09-08T00:49:10;4.00;;;3.60;;
10637;SDS011;47007;49.252;8.904;2023-09-08T00:49:53;4.13;;;3.75;;
10637;SDS011;47007;49.252;8.904;2023-09-08T00:50:35;3.85;;;3.55;;
10637;SDS011;47007;49.252;8.904;2023-09-08T00:51:18;3.63;;;3.33;;
10637;SDS011;47007;49.252;8.904;2023-09-08T00:52:00;3.63;;;3.40;;
10637;SDS011;47007;49.252;8.904;2023-09-08T00:52:42;4.50;;;4.07;;
10637;SDS011;47007;49.252;8.904;2023-09-08T00:53:25;4.35;;;4.00;;
10637;SDS011;47007;49.252;8.904;2023-09-08T00:54:08;4.60;;;4.10;;
10637;SDS011;47007;49.252;8.904;2023-09-08T00:54:50;3.85;;;3.55;;
10637;SDS011;47007;49.252;8.904;2023-09-08T00:55:32;4.65;;;4.25;;
10637;SDS011;47007;49.252;8.904;2023-09-08T00:56:14;3.80;;;3.50;;
10637;SDS011;47007;49.252;8.904;2023-09-08T00:56:56;3.60;;;3.30;;
10637;SDS011;47007;49.252;8.904;2023-09-08T00:57:38;3.78;;;3.47;;
10637;SDS011;47007;49.252;8.904;2023-09-08T00:58:20;4.40;;;4.00;;
10637;SDS011;47007;49.252;8.904;2023-09-08T00:59:02;4.00;;;3.67;;
10637;SDS011;47007;49.252;8.904;2023-09-08T00:59:44;4.93;;;3.70;;
10637;SDS011;47007;49.252;8.904;2023-09-08T01:00:26;3.83;;;3.53;;
10637;SDS011;47007;49.252;8.904;2023-09-08T01:01:08;3.60;;;3.28;;
10637;SDS011;47007;49.252;8.904;2023-09-08T01:01:49;4.03;;;3.60;;
10637;SDS011;47007;49.252;8.904;2023-09-08T01:02:31;4.70;;;4.35;;
10637;SDS011;47007;49.252;8.904;2023-09-08T01:03:13;4.15;;;3.85;;
10637;SDS011;47007;49.252;8.904;2023-09-08T01:03:55;4.35;;;3.95;;
10637;SDS011;47007;49.252;8.904;2023-09-08T01:04:36;5.25;;;4.05;;
10637;SDS011;47007;49.252;8.904;2023-09-08T01:05:22;4.72;;;4.32;;
10637;SDS011;47007;49.252;8.904;2023-09-08T01:06:04;4.90;;;4.40;;
10637;SDS011;47007;49.252;8.904;2023-09-08T01:06:47;4.43;;;4.13;;
10637;SDS011;47007;49.252;8.904;2023-09-08T01:07:30;4.57;;;4.18;;
10637;SDS011;47007;49.252;8.904;2023-09-08T01:08:13;4.72;;;4.32;;
10637;SDS011;47007;49.252;8.904;2023-09-08T01:08:55;4.70;;;4.13;;
10637;SDS011;47007;49.252;8.904;2023-09-08T01:09:38;4.05;;;3.55;;
10637;SDS011;47007;49.252;8.904;2023-09-08T01:10:21;4.43;;;3.83;;
10637;SDS011;47007;49.252;8.904;2023-09-08T01:11:02;4.22;;;3.67;;
10637;SDS011;47007;49.252;8.904;2023-09-08T01:11:44;4.22;;;3.92;;
10637;SDS011;47007;49.252;8.904;2023-09-08T01:12:29;4.20;;;3.90;;
10637;SDS011;47007;49.252;8.904;2023-09-08T01:13:12;4.43;;;4.03;;
10637;SDS011;47007;49.252;8.904;2023-09-08T01:13:54;5.00;;;4.47;;
10637;SDS011;47007;49.252;8.904;2023-09-08T01:14:36;4.53;;;4.13;;
10637;SDS011;47007;49.252;8.904;2023-09-08T01:15:18;4.22;;;3.88;;
10637;SDS011;47007;49.252;8.904;2023-09-08T01:16:01;5.32;;;4.65;;
10637;SDS011;47007;49.252;8.904;2023-09-08T01:16:43;4.53;;;3.70;;
10637;SDS011;47007;49.252;8.904;2023-09-08T01:17:25;4.43;;;4.03;;
10637;SDS011;47007;49.252;8.904;2023-09-08T01:18:07;4.57;;;4.05;;
10637;SDS011;47007;49.252;8.904;2023-09-08T01:18:49;4.60;;;4.20;;
10637;SDS011;47007;49.252;8.904;2023-09-08T01:19:32;4.15;;;3.80;;
10637;SDS011;47007;49.252;8.904;2023-09-08T01:20:18;5.32;;;3.88;;
10637;SDS011;47007;49.252;8.904;2023-09-08T01:21:23;3.90;;;3.60;;
10637;SDS011;47007;49.252;8.904;2023-09-08T01:23:59;4.28;;;3.97;;
10637;SDS011;47007;49.252;8.904;2023-09-08T01:25:57;4.90;;;4.43;;
10637;SDS011;47007;49.252;8.904;2023-09-08T01:26:45;4.10;;;3.80;;
10637;SDS011;47007;49.252;8.904;2023-09-08T01:27:27;4.47;;;4.13;;
10637;SDS011;47007;49.252;8.904;2023-09-08T01:28:12;4.47;;;4.07;;
10637;SDS011;47007;49.252;8.904;2023-09-08T01:28:54;4.43;;;4.00;;
10637;SDS011;47007;49.252;8.904;2023-09-08T01:29:37;4.53;;;4.10;;
10637;SDS011;47007;49.252;8.904;2023-09-08T01:30:21;4.35;;;3.95;;
10637;SDS011;47007;49.252;8.904;2023-09-08T01:31:05;4.55;;;4.15;;
10637;SDS011;47007;49.252;8.904;2023-09-08T01:31:47;3.97;;;3.67;;
10637;SDS011;47007;49.252;8.904;2023-09-08T01:32:29;4.72;;;4.28;;
10637;SDS011;47007;49.252;8.904;2023-09-08T01:33:11;4.28;;;3.90;;
10637;SDS011;47007;49.252;8.904;2023-09-08T01:33:53;4.50;;;4.10;;
10637;SDS011;47007;49.252;8.904;2023-09-08T01:34:36;5.50;;;4.07;;
10637;SDS011;47007;49.252;8.904;2023-09-08T01:35:21;4.13;;;3.83;;
10637;SDS011;47007;49.252;8.904;2023-09-08T01:36:03;4.35;;;3.95;;
10637;SDS011;47007;49.252;8.904;2023-09-08T01:36:45;3.67;;;3.38;;
10637;SDS011;47007;49.252;8.904;2023-09-08T01:37:27;3.90;;;3.60;;
10637;SDS011;47007;49.252;8.904;2023-09-08T01:38:09;4.43;;;3.78;;
10637;SDS011;47007;49.252;8.904;2023-09-08T01:38:51;3.83;;;3.53;;
10637;SDS011;47007;49.252;8.904;2023-09-08T01:39:35;4.28;;;3.88;;
10637;SDS011;47007;49.252;8.904;2023-09-08T01:40:17;3.78;;;3.47;;
10637;SDS011;47007;49.252;8.904;2023-09-08T01:41:00;4.32;;;3.92;;
10637;SDS011;47007;49.252;8.904;2023-09-08T01:41:43;4.25;;;3.95;;
10637;SDS011;47007;49.252;8.904;2023-09-08T01:42:24;3.75;;;3.45;;
10637;SDS011;47007;49.252;8.904;2023-09-08T01:43:06;3.85;;;3.53;;
10637;SDS011;47007;49.252;8.904;2023-09-08T01:43:48;3.95;;;3.58;;
10637;SDS011;47007;49.252;8.904;2023-09-08T01:44:29;3.70;;;3.50;;
10637;SDS011;47007;49.252;8.904;2023-09-08T01:45:11;3.88;;;3.58;;
10637;SDS011;47007;49.252;8.904;2023-09-08T01:45:53;3.80;;;3.50;;
10637;SDS011;47007;49.252;8.904;2023-09-08T01:46:34;4.93;;;3.30;;
10637;SDS011;47007;49.252;8.904;2023-09-08T01:47:16;3.97;;;3.67;;
10637;SDS011;47007;49.252;8.904;2023-09-08T01:47:58;3.85;;;3.55;;
10637;SDS011;47007;49.252;8.904;2023-09-08T01:48:40;4.35;;;3.95;;
10637;SDS011;47007;49.252;8.904;2023-09-08T01:49:24;6.30;;;3.90;;
10637;SDS011;47007;49.252;8.904;2023-09-08T01:50:06;4.30;;;3.90;;
10637;SDS011;47007;49.252;8.904;2023-09-08T01:50:48;4.47;;;4.18;;
10637;SDS011;47007;49.252;8.904;2023-09-08T01:51:30;3.72;;;3.42;;
10637;SDS011;47007;49.252;8.904;2023-09-08T01:52:12;4.95;;;4.20;;
10637;SDS011;47007;49.252;8.904;2023-09-08T01:52:54;3.97;;;3.58;;
10637;SDS011;47007;49.252;8.904;2023-09-08T01:53:36;4.00;;;3.60;;
10637;SDS011;47007;49.252;8.904;2023-09-08T01:54:18;4.10;;;3.70;;
10637;SDS011;47007;49.252;8.904;2023-09-08T01:54:59;4.25;;;3.85;;
10637;SDS011;47007;49.252;8.904;2023-09-08T01:55:42;4.10;;;3.80;;
10637;SDS011;47007;49.252;8.904;2023-09-08T01:56:24;3.90;;;3.60;;
10637;SDS011;47007;49.252;8.904;2023-09-08T01:57:07;3.92;;;3.63;;
10637;SDS011;47007;49.252;8.904;2023-09-08T01:57:49;4.07;;;3.67;;
10637;SDS011;47007;49.252;8.904;2023-09-08T01:58:31;4.03;;;3.70;;
10637;SDS011;47007;49.252;8.904;2023-09-08T01:59:15;4.03;;;3.72;;
10637;SDS011;47007;49.252;8.904;2023-09-08T01:59:57;3.88;;;3.58;;
10637;SDS011;47007;49.252;8.904;2023-09-08T02:00:39;4.20;;;3.90;;
10637;SDS011;47007;49.252;8.904;2023-09-08T02:01:21;4.15;;;3.65;;
10637;SDS011;47007;49.252;8.904;2023-09-08T02:02:03;3.70;;;3.40;;
10637;SDS011;47007;49.252;8.904;2023-09-08T02:02:45;4.20;;;3.80;;
10637;SDS011;47007;49.252;8.904;2023-09-08T02:03:27;4.30;;;3.90;;
10637;SDS011;47007;49.252;8.904;2023-09-08T02:04:09;3.63;;;3.40;;
10637;SDS011;47007;49.252;8.904;2023-09-08T02:04:50;3.90;;;3.55;;
10637;SDS011;47007;49.252;8.904;2023-09-08T02:05:32;4.03;;;3.72;;
10637;SDS011;47007;49.252;8.904;2023-09-08T02:06:15;4.03;;;3.72;;
10637;SDS011;47007;49.252;8.904;2023-09-08T02:06:57;3.50;;;3.20;;
10637;SDS011;47007;49.252;8.904;2023-09-08T02:07:39;4.72;;;4.15;;
10637;SDS011;47007;49.252;8.904;2023-09-08T02:08:21;3.90;;;3.60;;
10637;SDS011;47007;49.252;8.904;2023-09-08T02:09:03;3.75;;;3.45;;
10637;SDS011;47007;49.252;8.904;2023-09-08T02:09:46;3.88;;;3.58;;
10637;SDS011;47007;49.252;8.904;2023-09-08T02:10:27;3.80;;;3.50;;
10637;SDS011;47007;49.252;8.904;2023-09-08T02:11:09;3.83;;;3.42;;
10637;SDS011;47007;49.252;8.904;2023-09-08T02:11:51;4.13;;;3.40;;
10637;SDS011;47007;49.252;8.904;2023-09-08T02:12:32;4.43;;;3.42;;
10637;SDS011;47007;49.252;8.904;2023-09-08T02:13:14;3.67;;;3.35;;
10637;SDS011;47007;49.252;8.904;2023-09-08T02:13:56;3.88;;;3.58;;
10637;SDS011;47007;49.252;8.904;2023-09-08T02:14:39;6.43;;;4.07;;
10637;SDS011;47007;49.252;8.904;2023-09-08T02:15:21;4.03;;;3.72;;
10637;SDS011;47007;49.252;8.904;2023-09-08T02:16:03;4.65;;;3.60;;
10637;SDS011;47007;49.252;8.904;2023-09-08T02:16:45;4.25;;;3.55;;
10637;SDS011;47007;49.252;8.904;2023-09-08T02:17:27;4.03;;;3.72;;
10637;SDS011;47007;49.252;8.904;2023-09-08T02:18:08;3.85;;;3.55;;
10637;SDS011;47007;49.252;8.904;2023-09-08T02:18:50;4.15;;;3.85;;
10637;SDS011;47007;49.252;8.904;2023-09-08T02:19:32;4.35;;;3.95;;
10637;SDS011;47007;49.252;8.904;2023-09-08T02:20:14;4.00;;;3.60;;
10637;SDS011;47007;49.252;8.904;2023-09-08T02:20:56;4.15;;;3.55;;
10637;SDS011;47007;49.252;8.904;2023-09-08T02:21:38;4.93;;;4.35;;
10637;SDS011;47007;49.252;8.904;2023-09-08T02:22:19;3.83;;;3.53;;
10637;SDS011;47007;49.252;8.904;2023-09-08T02:23:04;3.95;;;3.65;;
10637;SDS011;47007;49.252;8.904;2023-09-08T02:23:48;4.40;;;4.00;;
10637;SDS011;47007;49.252;8.904;2023-09-08T02:24:29;4.25;;;3.85;;
10637;SDS011;47007;49.252;8.904;2023-09-08T02:25:12;4.07;;;3.72;;
10637;SDS011;47007;49.252;8.904;2023-09-08T02:25:53;4.13;;;3.83;;
10637;SDS011;47007;49.252;8.904;2023-09-08T02:26:35;5.13;;;3.88;;
10637;SDS011;47007;49.252;8.904;2023-09-08T02:27:17;4.47;;;4.07;;
10637;SDS011;47007;49.252;8.904;2023-09-08T02:28:00;3.55;;;3.33;;
10637;SDS011;47007;49.252;8.904;2023-09-08T02:28:41;4.05;;;3.75;;
10637;SDS011;47007;49.252;8.904;2023-09-08T02:29:23;3.88;;;3.55;;
10637;SDS011;47007;49.252;8.904;2023-09-08T02:30:05;4.07;;;3.70;;
10637;SDS011;47007;49.252;8.904;2023-09-08T02:30:47;3.83;;;3.53;;
10637;SDS011;47007;49.252;8.904;2023-09-08T02:31:30;3.80;;;3.50;;
10637;SDS011;47007;49.252;8.904;2023-09-08T02:32:12;4.05;;;3.63;;
10637;SDS011;47007;49.252;8.904;2023-09-08T02:32:55;4.25;;;3.83;;
10637;SDS011;47007;49.252;8.904;2023-09-08T02:33:37;3.95;;;3.65;;
10637;SDS011;47007;49.252;8.904;2023-09-08T02:34:19;4.18;;;3.88;;
10637;SDS011;47007;49.252;8.904;2023-09-08T02:35:01;4.20;;;3.90;;
10637;SDS011;47007;49.252;8.904;2023-09-08T02:35:43;4.30;;;3.90;;
10637;SDS011;47007;49.252;8.904;2023-09-08T02:36:26;4.20;;;3.85;;
10637;SDS011;47007;49.252;8.904;2023-09-08T02:37:09;3.60;;;3.35;;
10637;SDS011;47007;49.252;8.904;2023-09-08T02:37:51;3.97;;;3.67;;
10637;SDS011;47007;49.252;8.904;2023-09-08T02:38:34;4.28;;;3.92;;
10637;SDS011;47007;49.252;8.904;2023-09-08T02:39:16;4.05;;;3.75;;
10637;SDS011;47007;49.252;8.904;2023-09-08T02:39:58;4.15;;;3.83;;
10637;SDS011;47007;49.252;8.904;2023-09-08T02:40:40;4.20;;;3.90;;
10637;SDS011;47007;49.252;8.904;2023-09-08T02:41:22;4.45;;;4.05;;
10637;SDS011;47007;49.252;8.904;2023-09-08T02:42:04;3.92;;;3.63;;
10637;SDS011;47007;49.252;8.904;2023-09-08T02:42:46;4.60;;;4.03;;
10637;SDS011;47007;49.252;8.904;2023-09-08T02:43:28;4.07;;;3.78;;
10637;SDS011;47007;49.252;8.904;2023-09-08T02:44:09;4.25;;;3.80;;
10637;SDS011;47007;49.252;8.904;2023-09-08T02:44:51;3.95;;;3.65;;
10637;SDS011;47007;49.252;8.904;2023-09-08T02:45:33;4.13;;;3.70;;
10637;SDS011;47007;49.252;8.904;2023-09-08T02:46:17;5.43;;;4.53;;
10637;SDS011;47007;49.252;8.904;2023-09-08T02:46:59;4.60;;;4.15;;
10637;SDS011;47007;49.252;8.904;2023-09-08T02:47:41;4.30;;;4.00;;
10637;SDS011;47007;49.252;8.904;2023-09-08T02:48:23;4.40;;;4.00;;
10637;SDS011;47007;49.252;8.904;2023-09-08T02:49:05;4.55;;;4.03;;
10637;SDS011;47007;49.252;8.904;2023-09-08T02:49:47;4.15;;;3.85;;
10637;SDS011;47007;49.252;8.904;2023-09-08T02:50:29;4.40;;;4.00;;
10637;SDS011;47007;49.252;8.904;2023-09-08T02:51:11;4.50;;;4.10;;
10637;SDS011;47007;49.252;8.904;2023-09-08T02:51:53;4.40;;;4.00;;
10637;SDS011;47007;49.252;8.904;2023-09-08T02:52:35;4.63;;;4.22;;
10637;SDS011;47007;49.252;8.904;2023-09-08T02:53:17;4.65;;;3.80;;
10637;SDS011;47007;49.252;8.904;2023-09-08T02:53:58;4.75;;;4.25;;
10637;SDS011;47007;49.252;8.904;2023-09-08T02:54:40;4.78;;;4.38;;
10637;SDS011;47007;49.252;8.904;2023-09-08T02:55:22;4.70;;;4.13;;
10637;SDS011;47007;49.252;8.904;2023-09-08T02:56:04;6.40;;;4.43;;
10637;SDS011;47007;49.252;8.904;2023-09-08T02:56:47;5.85;;;4.20;;
10637;SDS011;47007;49.252;8.904;2023-09-08T02:57:28;4.53;;;4.13;;
10637;SDS011;47007;49.252;8.904;2023-09-08T02:58:10;4.72;;;4.30;;
10637;SDS011;47007;49.252;8.904;2023-09-08T02:58:52;4.22;;;3.83;;
10637;SDS011;47007;49.252;8.904;2023-09-08T02:59:33;4.07;;;3.78;;
10637;SDS011;47007;49.252;8.904;2023-09-08T03:00:15;4.63;;;4.20;;
10637;SDS011;47007;49.252;8.904;2023-09-08T03:00:57;4.35;;;3.92;;
10637;SDS011;47007;49.252;8.904;2023-09-08T03:01:39;4.13;;;3.80;;
10637;SDS011;47007;49.252;8.904;2023-09-08T03:02:21;4.55;;;4.22;;
10637;SDS011;47007;49.252;8.904;2023-09-08T03:03:03;4.35;;;4.00;;
10637;SDS011;47007;49.252;8.904;2023-09-08T03:03:45;4.35;;;3.95;;
10637;SDS011;47007;49.252;8.904;2023-09-08T03:04:28;4.35;;;3.95;;
10637;SDS011;47007;49.252;8.904;2023-09-08T03:05:10;4.43;;;4.03;;
10637;SDS011;47007;49.252;8.904;2023-09-08T03:05:53;4.60;;;4.20;;
10637;SDS011;47007;49.252;8.904;2023-09-08T03:06:37;4.40;;;3.97;;
10637;SDS011;47007;49.252;8.904;2023-09-08T03:07:19;4.85;;;4.25;;
10637;SDS011;47007;49.252;8.904;2023-09-08T03:08:01;4.30;;;3.90;;
10637;SDS011;47007;49.252;8.904;2023-09-08T03:08:42;4.45;;;4.13;;
10637;SDS011;47007;49.252;8.904;2023-09-08T03:09:24;4.75;;;4.28;;
10637;SDS011;47007;49.252;8.904;2023-09-08T03:10:06;5.50;;;4.20;;
10637;SDS011;47007;49.252;8.904;2023-09-08T03:10:48;4.43;;;4.03;;
10637;SDS011;47007;49.252;8.904;2023-09-08T03:11:30;4.82;;;4.32;;
10637;SDS011;47007;49.252;8.904;2023-09-08T03:12:12;4.78;;;4.20;;
10637;SDS011;47007;49.252;8.904;2023-09-08T03:12:54;4.85;;;4.35;;
10637;SDS011;47007;49.252;8.904;2023-09-08T03:13:36;4.28;;;3.97;;
10637;SDS011;47007;49.252;8.904;2023-09-08T03:14:18;4.68;;;4.10;;
10637;SDS011;47007;49.252;8.904;2023-09-08T03:15:00;4.15;;;3.85;;
10637;SDS011;47007;49.252;8.904;2023-09-08T03:15:43;4.30;;;3.92;;
10637;SDS011;47007;49.252;8.904;2023-09-08T03:16:24;4.50;;;4.10;;
10637;SDS011;47007;49.252;8.904;2023-09-08T03:17:06;4.45;;;3.88;;
10637;SDS011;47007;49.252;8.904;2023-09-08T03:17:48;4.78;;;4.38;;
10637;SDS011;47007;49.252;8.904;2023-09-08T03:18:30;4.40;;;4.00;;
10637;SDS011;47007;49.252;8.904;2023-09-08T03:19:11;4.50;;;4.20;;
10637;SDS011;47007;49.252;8.904;2023-09-08T03:19:53;5.13;;;4.25;;
10637;SDS011;47007;49.252;8.904;2023-09-08T03:20:35;4.32;;;4.03;;
10637;SDS011;47007;49.252;8.904;2023-09-08T03:21:17;4.80;;;4.40;;
10637;SDS011;47007;49.252;8.904;2023-09-08T03:21:59;4.40;;;4.00;;
10637;SDS011;47007;49.252;8.904;2023-09-08T03:22:40;4.43;;;4.10;;
10637;SDS011;47007;49.252;8.904;2023-09-08T03:23:22;6.03;;;4.40;;
10637;SDS011;47007;49.252;8.904;2023-09-08T03:24:04;3.53;;;3.33;;
10637;SDS011;47007;49.252;8.904;2023-09-08T03:24:47;4.65;;;4.20;;
10637;SDS011;47007;49.252;8.904;2023-09-08T03:25:29;4.25;;;3.95;;
10637;SDS011;47007;49.252;8.904;2023-09-08T03:26:11;4.57;;;4.22;;
10637;SDS011;47007;49.252;8.904;2023-09-08T03:26:53;4.53;;;4.22;;
10637;SDS011;47007;49.252;8.904;2023-09-08T03:27:35;4.80;;;4.30;;
10637;SDS011;47007;49.252;8.904;2023-09-08T03:28:18;4.57;;;4.18;;
10637;SDS011;47007;49.252;8.904;2023-09-08T03:28:59;4.43;;;4.03;;
10637;SDS011;47007;49.252;8.904;2023-09-08T03:29:41;4.90;;;4.50;;
10637;SDS011;47007;49.252;8.904;2023-09-08T03:30:23;5.30;;;3.95;;
10637;SDS011;47007;49.252;8.904;2023-09-08T03:31:05;5.45;;;4.25;;
10637;SDS011;47007;49.252;8.904;2023-09-08T03:31:48;4.97;;;4.45;;
10637;SDS011;47007;49.252;8.904;2023-09-08T03:32:31;5.30;;;4.70;;
10637;SDS011;47007;49.252;8.904;2023-09-08T03:33:13;4.80;;;4.40;;
10637;SDS011;47007;49.252;8.904;2023-09-08T03:33:55;5.57;;;4.07;;
10637;SDS011;47007;49.252;8.904;2023-09-08T03:34:37;4.65;;;4.20;;
10637;SDS011;47007;49.252;8.904;2023-09-08T03:35:21;3.95;;;3.65;;
10637;SDS011;47007;49.252;8.904;2023-09-08T03:36:03;4.68;;;4.28;;
10637;SDS011;47007;49.252;8.904;2023-09-08T03:36:45;4.90;;;4.30;;
10637;SDS011;47007;49.252;8.904;2023-09-08T03:37:26;4.82;;;4.43;;
10637;SDS011;47007;49.252;8.904;2023-09-08T03:38:08;5.03;;;4.60;;
10637;SDS011;47007;49.252;8.904;2023-09-08T03:38:50;5.60;;;4.70;;
10637;SDS011;47007;49.252;8.904;2023-09-08T03:39:32;5.93;;;4.47;;
10637;SDS011;47007;49.252;8.904;2023-09-08T03:40:15;5.25;;;4.80;;
10637;SDS011;47007;49.252;8.904;2023-09-08T03:40:57;4.82;;;4.43;;
10637;SDS011;47007;49.252;8.904;2023-09-08T03:41:39;5.45;;;4.95;;
10637;SDS011;47007;49.252;8.904;2023-09-08T03:42:22;6.18;;;4.82;;
10637;SDS011;47007;49.252;8.904;2023-09-08T03:43:04;4.93;;;4.47;;
10637;SDS011;47007;49.252;8.904;2023-09-08T03:43:45;5.13;;;4.70;;
10637;SDS011;47007;49.252;8.904;2023-09-08T03:44:27;5.10;;;4.60;;
10637;SDS011;47007;49.252;8.904;2023-09-08T03:45:09;4.82;;;4.43;;
10637;SDS011;47007;49.252;8.904;2023-09-08T03:45:51;4.22;;;3.92;;
10637;SDS011;47007;49.252;8.904;2023-09-08T03:46:33;5.22;;;4.72;;
10637;SDS011;47007;49.252;8.904;2023-09-08T03:47:15;5.38;;;4.88;;
10637;SDS011;47007;49.252;8.904;2023-09-08T03:47:57;5.15;;;4.65;;
10637;SDS011;47007;49.252;8.904;2023-09-08T03:48:39;5.20;;;4.75;;
10637;SDS011;47007;49.252;8.904;2023-09-08T03:49:20;4.97;;;4.50;;
10637;SDS011;47007;49.252;8.904;2023-09-08T03:50:02;5.68;;;4.43;;
10637;SDS011;47007;49.252;8.904;2023-09-08T03:50:44;4.85;;;4.45;;
10637;SDS011;47007;49.252;8.904;2023-09-08T03:51:26;5.80;;;4.00;;
10637;SDS011;47007;49.252;8.904;2023-09-08T03:52:09;4.57;;;4.15;;
10637;SDS011;47007;49.252;8.904;2023-09-08T03:52:51;6.15;;;4.45;;
10637;SDS011;47007;49.252;8.904;2023-09-08T03:53:32;5.15;;;4.53;;
10637;SDS011;47007;49.252;8.904;2023-09-08T03:54:15;6.85;;;4.93;;
10637;SDS011;47007;49.252;8.904;2023-09-08T03:54:56;5.28;;;4.88;;
10637;SDS011;47007;49.252;8.904;2023-09-08T03:55:38;5.15;;;4.43;;
10637;SDS011;47007;49.252;8.904;2023-09-08T03:56:20;5.53;;;5.00;;
10637;SDS011;47007;49.252;8.904;2023-09-08T03:57:02;5.18;;;4.45;;
10637;SDS011;47007;49.252;8.904;2023-09-08T03:57:43;5.53;;;4.90;;
10637;SDS011;47007;49.252;8.904;2023-09-08T03:58:25;4.75;;;4.40;;
10637;SDS011;47007;49.252;8.904;2023-09-08T03:59:08;5.30;;;4.80;;
10637;SDS011;47007;49.252;8.904;2023-09-08T03:59:49;4.43;;;4.13;;
10637;SDS011;47007;49.252;8.904;2023-09-08T04:00:31;5.55;;;4.72;;
10637;SDS011;47007;49.252;8.904;2023-09-08T04:01:13;5.28;;;4.88;;
10637;SDS011;47007;49.252;8.904;2023-09-08T04:01:55;4.60;;;4.22;;
10637;SDS011;47007;49.252;8.904;2023-09-08T04:02:37;4.60;;;4.20;;
10637;SDS011;47007;49.252;8.904;2023-09-08T04:03:19;4.95;;;4.30;;
10637;SDS011;47007;49.252;8.904;2023-09-08T04:04:00;5.20;;;4.70;;
10637;SDS011;47007;49.252;8.904;2023-09-08T04:04:42;4.95;;;4.55;;
10637;SDS011;47007;49.252;8.904;2023-09-08T04:05:24;5.00;;;4.55;;
10637;SDS011;47007;49.252;8.904;2023-09-08T04:06:06;5.22;;;4.78;;
10637;SDS011;47007;49.252;8.904;2023-09-08T04:06:47;4.75;;;4.25;;
10637;SDS011;47007;49.252;8.904;2023-09-08T04:07:29;4.63;;;4.28;;
10637;SDS011;47007;49.252;8.904;2023-09-08T04:08:11;4.93;;;4.53;;
10637;SDS011;47007;49.252;8.904;2023-09-08T04:08:53;4.95;;;4.38;;
10637;SDS011;47007;49.252;8.904;2023-09-08T04:09:35;5.93;;;4.38;;
10637;SDS011;47007;49.252;8.904;2023-09-08T04:10:16;5.15;;;4.65;;
10637;SDS011;47007;49.252;8.904;2023-09-08T04:10:58;4.85;;;4.45;;
10637;SDS011;47007;49.252;8.904;2023-09-08T04:11:40;4.53;;;3.90;;
10637;SDS011;47007;49.252;8.904;2023-09-08T04:12:23;4.80;;;4.40;;
10637;SDS011;47007;49.252;8.904;2023-09-08T04:13:05;4.45;;;4.05;;
10637;SDS011;47007;49.252;8.904;2023-09-08T04:13:47;5.45;;;4.30;;
10637;SDS011;47007;49.252;8.904;2023-09-08T04:14:29;5.13;;;4.72;;
10637;SDS011;47007;49.252;8.904;2023-09-08T04:15:11;5.43;;;4.07;;
10637;SDS011;47007;49.252;8.904;2023-09-08T04:15:53;4.80;;;4.50;;
10637;SDS011;47007;49.252;8.904;2023-09-08T04:16:35;5.00;;;4.60;;
10637;SDS011;47007;49.252;8.904;2023-09-08T04:17:18;4.95;;;4.45;;